sensor_id;sensor_type;location;lat;lon;timestamp;temperature;humidity
64650;HTU21D;51061;45.258;38.112;2022-09-16T00:00:21;21.98;71.13
64650;HTU21D;51061;45.258;38.112;2022-09-16T00:02:50;21.96;71.21
64650;HTU21D;51061;45.258;38.112;2022-09-16T00:05:16;21.95;71.23
64650;HTU21D;51061;45.258;38.112;2022-09-16T00:07:42;21.98;71.19
64650;HTU21D;51061;45.258;38.112;2022-09-16T00:10:08;21.98;71.12
64650;HTU21D;51061;45.258;38.112;2022-09-16T00:12:35;22.01;71.03
64650;HTU21D;51061;45.258;38.112;2022-09-16T00:15:02;22.02;71.03
64650;HTU21D;51061;45.258;38.112;2022-09-16T00:17:28;22.01;71.01
64650;HTU21D;51061;45.258;38.112;2022-09-16T00:19:56;22.03;70.97
64650;HTU21D;51061;45.258;38.112;2022-09-16T00:22:29;22.02;70.97
64650;HTU21D;51061;45.258;38.112;2022-09-16T00:24:55;21.98;71.08
64650;HTU21D;51061;45.258;38.112;2022-09-16T00:27:21;21.93;71.20
64650;HTU21D;51061;45.258;38.112;2022-09-16T00:29:47;21.90;71.35
64650;HTU21D;51061;45.258;38.112;2022-09-16T00:32:13;21.88;71.46
64650;HTU21D;51061;45.258;38.112;2022-09-16T00:34:39;21.87;71.60
64650;HTU21D;51061;45.258;38.112;2022-09-16T00:37:05;21.85;71.69
64650;HTU21D;51061;45.258;38.112;2022-09-16T00:39:35;21.84;71.74
64650;HTU21D;51061;45.258;38.112;2022-09-16T00:42:03;21.85;71.81
64650;HTU21D;51061;45.258;38.112;2022-09-16T00:45:12;21.82;72.07
64650;HTU21D;51061;45.258;38.112;2022-09-16T00:47:58;21.82;72.00
64650;HTU21D;51061;45.258;38.112;2022-09-16T00:53:11;21.81;72.10
64650;HTU21D;51061;45.258;38.112;2022-09-16T00:55:38;21.81;72.16
64650;HTU21D;51061;45.258;38.112;2022-09-16T01:00:53;21.82;72.06
64650;HTU21D;51061;45.258;38.112;2022-09-16T01:03:20;21.85;72.00
64650;HTU21D;51061;45.258;38.112;2022-09-16T01:05:46;21.87;71.87
64650;HTU21D;51061;45.258;38.112;2022-09-16T01:08:13;21.91;71.71
64650;HTU21D;51061;45.258;38.112;2022-09-16T01:10:40;21.94;71.60
64650;HTU21D;51061;45.258;38.112;2022-09-16T01:13:10;21.95;71.41
64650;HTU21D;51061;45.258;38.112;2022-09-16T01:16:27;21.97;71.38
64650;HTU21D;51061;45.258;38.112;2022-09-16T01:19:11;22.03;71.19
64650;HTU21D;51061;45.258;38.112;2022-09-16T01:22:07;22.03;71.18
64650;HTU21D;51061;45.258;38.112;2022-09-16T01:24:53;22.02;71.15
64650;HTU21D;51061;45.258;38.112;2022-09-16T01:48:01;22.19;70.71
64650;HTU21D;51061;45.258;38.112;2022-09-16T01:50:40;22.24;70.44
64650;HTU21D;51061;45.258;38.112;2022-09-16T01:53:53;22.28;70.16
64650;HTU21D;51061;45.258;38.112;2022-09-16T01:56:45;22.34;69.74
64650;HTU21D;51061;45.258;38.112;2022-09-16T01:59:27;22.39;69.41
64650;HTU21D;51061;45.258;38.112;2022-09-16T02:02:19;22.44;69.07
64650;HTU21D;51061;45.258;38.112;2022-09-16T02:04:54;22.49;68.62
64650;HTU21D;51061;45.258;38.112;2022-09-16T02:07:26;22.51;68.56
64650;HTU21D;51061;45.258;38.112;2022-09-16T02:10:07;22.51;68.26
64650;HTU21D;51061;45.258;38.112;2022-09-16T02:12:39;22.53;68.11
64650;HTU21D;51061;45.258;38.112;2022-09-16T02:15:08;22.51;67.83
64650;HTU21D;51061;45.258;38.112;2022-09-16T02:17:40;22.55;67.20
64650;HTU21D;51061;45.258;38.112;2022-09-16T02:20:08;22.56;67.07
64650;HTU21D;51061;45.258;38.112;2022-09-16T02:22:39;22.57;66.70
64650;HTU21D;51061;45.258;38.112;2022-09-16T02:25:06;22.57;66.28
64650;HTU21D;51061;45.258;38.112;2022-09-16T02:27:35;22.58;65.96
64650;HTU21D;51061;45.258;38.112;2022-09-16T02:30:13;22.57;65.40
64650;HTU21D;51061;45.258;38.112;2022-09-16T02:32:45;22.56;65.33
64650;HTU21D;51061;45.258;38.112;2022-09-16T02:35:15;22.57;64.84
64650;HTU21D;51061;45.258;38.112;2022-09-16T02:37:57;22.55;64.51
64650;HTU21D;51061;45.258;38.112;2022-09-16T02:40:36;22.51;64.64
64650;HTU21D;51061;45.258;38.112;2022-09-16T02:43:06;22.49;64.64
64650;HTU21D;51061;45.258;38.112;2022-09-16T02:48:21;22.39;64.95
64650;HTU21D;51061;45.258;38.112;2022-09-16T02:53:44;22.32;65.11
64650;HTU21D;51061;45.258;38.112;2022-09-16T02:56:26;22.29;65.14
64650;HTU21D;51061;45.258;38.112;2022-09-16T02:58:54;22.29;65.08
64650;HTU21D;51061;45.258;38.112;2022-09-16T03:01:21;22.27;65.12
64650;HTU21D;51061;45.258;38.112;2022-09-16T03:03:50;22.26;65.17
64650;HTU21D;51061;45.258;38.112;2022-09-16T03:06:21;22.21;65.29
64650;HTU21D;51061;45.258;38.112;2022-09-16T03:08:49;22.22;65.11
64650;HTU21D;51061;45.258;38.112;2022-09-16T03:11:31;22.21;65.03
64650;HTU21D;51061;45.258;38.112;2022-09-16T03:24:58;22.22;64.72
64650;HTU21D;51061;45.258;38.112;2022-09-16T03:27:41;22.23;64.68
64650;HTU21D;51061;45.258;38.112;2022-09-16T03:30:10;22.25;64.82
64650;HTU21D;51061;45.258;38.112;2022-09-16T03:32:52;22.26;64.82
64650;HTU21D;51061;45.258;38.112;2022-09-16T03:35:26;22.28;64.92
64650;HTU21D;51061;45.258;38.112;2022-09-16T03:37:57;22.31;65.03
64650;HTU21D;51061;45.258;38.112;2022-09-16T03:40:25;22.32;65.22
64650;HTU21D;51061;45.258;38.112;2022-09-16T03:42:54;22.29;65.43
64650;HTU21D;51061;45.258;38.112;2022-09-16T03:45:22;22.28;65.66
64650;HTU21D;51061;45.258;38.112;2022-09-16T03:47:50;22.28;65.84
64650;HTU21D;51061;45.258;38.112;2022-09-16T03:50:17;22.26;66.00
64650;HTU21D;51061;45.258;38.112;2022-09-16T03:52:43;22.25;66.13
64650;HTU21D;51061;45.258;38.112;2022-09-16T03:55:10;22.22;66.24
64650;HTU21D;51061;45.258;38.112;2022-09-16T03:57:36;22.21;66.33
64650;HTU21D;51061;45.258;38.112;2022-09-16T04:00:04;22.20;66.44
64650;HTU21D;51061;45.258;38.112;2022-09-16T04:02:37;22.17;66.48
64650;HTU21D;51061;45.258;38.112;2022-09-16T04:05:04;22.17;66.49
64650;HTU21D;51061;45.258;38.112;2022-09-16T04:07:33;22.16;66.54
64650;HTU21D;51061;45.258;38.112;2022-09-16T04:09:59;22.13;66.64
64650;HTU21D;51061;45.258;38.112;2022-09-16T04:12:27;22.14;66.60
64650;HTU21D;51061;45.258;38.112;2022-09-16T04:14:53;22.13;66.65
64650;HTU21D;51061;45.258;38.112;2022-09-16T04:17:37;22.13;66.67
64650;HTU21D;51061;45.258;38.112;2022-09-16T04:20:04;22.20;66.51
64650;HTU21D;51061;45.258;38.112;2022-09-16T04:22:32;22.29;66.25
64650;HTU21D;51061;45.258;38.112;2022-09-16T04:24:58;22.40;66.04
64650;HTU21D;51061;45.258;38.112;2022-09-16T04:27:25;22.49;65.56
64650;HTU21D;51061;45.258;38.112;2022-09-16T04:29:51;22.57;65.41
64650;HTU21D;51061;45.258;38.112;2022-09-16T04:32:17;22.63;65.23
64650;HTU21D;51061;45.258;38.112;2022-09-16T04:34:43;22.66;65.22
64650;HTU21D;51061;45.258;38.112;2022-09-16T04:37:10;22.69;65.20
64650;HTU21D;51061;45.258;38.112;2022-09-16T04:39:36;22.71;65.17
64650;HTU21D;51061;45.258;38.112;2022-09-16T04:42:02;22.75;64.88
64650;HTU21D;51061;45.258;38.112;2022-09-16T04:44:30;22.81;64.64
64650;HTU21D;51061;45.258;38.112;2022-09-16T04:46:56;22.83;64.52
64650;HTU21D;51061;45.258;38.112;2022-09-16T04:49:23;22.87;64.34
64650;HTU21D;51061;45.258;38.112;2022-09-16T04:51:48;22.93;64.06
64650;HTU21D;51061;45.258;38.112;2022-09-16T04:54:16;22.98;63.69
64650;HTU21D;51061;45.258;38.112;2022-09-16T04:56:42;23.02;63.58
64650;HTU21D;51061;45.258;38.112;2022-09-16T04:59:09;23.07;63.48
64650;HTU21D;51061;45.258;38.112;2022-09-16T05:01:37;23.15;63.12
64650;HTU21D;51061;45.258;38.112;2022-09-16T05:04:05;23.22;62.88
64650;HTU21D;51061;45.258;38.112;2022-09-16T05:06:35;23.30;62.88
64650;HTU21D;51061;45.258;38.112;2022-09-16T05:09:03;23.35;62.79
64650;HTU21D;51061;45.258;38.112;2022-09-16T05:11:32;23.39;62.61
64650;HTU21D;51061;45.258;38.112;2022-09-16T05:14:05;23.44;62.48
64650;HTU21D;51061;45.258;38.112;2022-09-16T05:16:32;23.46;62.62
64650;HTU21D;51061;45.258;38.112;2022-09-16T05:18:59;23.50;62.52
64650;HTU21D;51061;45.258;38.112;2022-09-16T05:21:27;23.51;62.53
64650;HTU21D;51061;45.258;38.112;2022-09-16T05:23:54;23.52;62.61
64650;HTU21D;51061;45.258;38.112;2022-09-16T05:26:23;23.57;62.25
64650;HTU21D;51061;45.258;38.112;2022-09-16T05:28:49;23.60;62.06
64650;HTU21D;51061;45.258;38.112;2022-09-16T05:31:17;23.68;61.69
64650;HTU21D;51061;45.258;38.112;2022-09-16T05:33:46;23.71;61.73
64650;HTU21D;51061;45.258;38.112;2022-09-16T05:36:14;23.73;61.73
64650;HTU21D;51061;45.258;38.112;2022-09-16T05:38:41;23.76;61.70
64650;HTU21D;51061;45.258;38.112;2022-09-16T05:41:10;23.82;61.76
64650;HTU21D;51061;45.258;38.112;2022-09-16T05:43:37;23.85;61.82
64650;HTU21D;51061;45.258;38.112;2022-09-16T05:46:04;23.87;61.80
64650;HTU21D;51061;45.258;38.112;2022-09-16T05:48:31;23.88;61.77
64650;HTU21D;51061;45.258;38.112;2022-09-16T05:51:02;23.89;61.72
64650;HTU21D;51061;45.258;38.112;2022-09-16T05:53:30;23.90;61.72
64650;HTU21D;51061;45.258;38.112;2022-09-16T05:56:06;23.81;62.11
64650;HTU21D;51061;45.258;38.112;2022-09-16T05:58:35;23.87;61.83
64650;HTU21D;51061;45.258;38.112;2022-09-16T06:01:14;23.90;61.84
64650;HTU21D;51061;45.258;38.112;2022-09-16T06:03:41;23.95;61.83
64650;HTU21D;51061;45.258;38.112;2022-09-16T06:06:13;23.95;61.96
64650;HTU21D;51061;45.258;38.112;2022-09-16T06:08:41;23.91;62.02
64650;HTU21D;51061;45.258;38.112;2022-09-16T06:11:09;23.91;62.22
64650;HTU21D;51061;45.258;38.112;2022-09-16T06:13:36;23.90;62.42
64650;HTU21D;51061;45.258;38.112;2022-09-16T06:16:04;23.92;62.38
64650;HTU21D;51061;45.258;38.112;2022-09-16T06:18:31;23.95;62.34
64650;HTU21D;51061;45.258;38.112;2022-09-16T06:21:05;23.94;62.37
64650;HTU21D;51061;45.258;38.112;2022-09-16T06:23:32;23.94;62.39
64650;HTU21D;51061;45.258;38.112;2022-09-16T06:26:03;23.96;62.12
64650;HTU21D;51061;45.258;38.112;2022-09-16T06:28:29;23.97;62.09
64650;HTU21D;51061;45.258;38.112;2022-09-16T06:31:16;23.90;62.33
64650;HTU21D;51061;45.258;38.112;2022-09-16T06:33:42;23.84;62.49
64650;HTU21D;51061;45.258;38.112;2022-09-16T06:36:17;23.88;61.98
64650;HTU21D;51061;45.258;38.112;2022-09-16T06:38:45;23.87;61.83
64650;HTU21D;51061;45.258;38.112;2022-09-16T06:41:13;23.94;61.31
64650;HTU21D;51061;45.258;38.112;2022-09-16T06:43:39;24.01;60.93
64650;HTU21D;51061;45.258;38.112;2022-09-16T06:46:08;24.05;60.92
64650;HTU21D;51061;45.258;38.112;2022-09-16T06:48:39;24.12;60.84
64650;HTU21D;51061;45.258;38.112;2022-09-16T06:51:11;24.17;60.65
64650;HTU21D;51061;45.258;38.112;2022-09-16T06:53:38;24.18;60.18
64650;HTU21D;51061;45.258;38.112;2022-09-16T06:56:07;24.21;59.90
64650;HTU21D;51061;45.258;38.112;2022-09-16T06:58:35;24.25;59.73
64650;HTU21D;51061;45.258;38.112;2022-09-16T07:01:06;24.31;59.25
64650;HTU21D;51061;45.258;38.112;2022-09-16T07:03:35;24.36;59.22
64650;HTU21D;51061;45.258;38.112;2022-09-16T07:06:02;24.39;59.26
64650;HTU21D;51061;45.258;38.112;2022-09-16T07:08:32;24.42;59.23
64650;HTU21D;51061;45.258;38.112;2022-09-16T07:11:03;24.46;59.12
64650;HTU21D;51061;45.258;38.112;2022-09-16T07:13:30;24.53;59.11
64650;HTU21D;51061;45.258;38.112;2022-09-16T07:16:00;24.59;58.85
64650;HTU21D;51061;45.258;38.112;2022-09-16T07:18:28;24.68;58.36
64650;HTU21D;51061;45.258;38.112;2022-09-16T07:21:15;24.75;58.06
64650;HTU21D;51061;45.258;38.112;2022-09-16T07:23:43;24.84;58.11
64650;HTU21D;51061;45.258;38.112;2022-09-16T07:26:12;24.89;57.74
64650;HTU21D;51061;45.258;38.112;2022-09-16T07:28:39;24.95;57.54
64650;HTU21D;51061;45.258;38.112;2022-09-16T07:31:08;25.05;57.39
64650;HTU21D;51061;45.258;38.112;2022-09-16T07:33:39;25.14;57.21
64650;HTU21D;51061;45.258;38.112;2022-09-16T07:36:06;25.18;57.31
64650;HTU21D;51061;45.258;38.112;2022-09-16T07:38:33;25.27;57.25
64650;HTU21D;51061;45.258;38.112;2022-09-16T07:41:14;25.35;56.21
64650;HTU21D;51061;45.258;38.112;2022-09-16T07:43:42;25.42;56.27
64650;HTU21D;51061;45.258;38.112;2022-09-16T07:46:09;25.56;55.94
64650;HTU21D;51061;45.258;38.112;2022-09-16T07:48:37;25.64;55.45
64650;HTU21D;51061;45.258;38.112;2022-09-16T07:51:12;25.67;54.96
64650;HTU21D;51061;45.258;38.112;2022-09-16T07:53:39;25.80;54.69
64650;HTU21D;51061;45.258;38.112;2022-09-16T07:56:14;25.92;53.25
64650;HTU21D;51061;45.258;38.112;2022-09-16T07:58:41;26.09;53.63
64650;HTU21D;51061;45.258;38.112;2022-09-16T08:01:08;26.33;53.42
64650;HTU21D;51061;45.258;38.112;2022-09-16T08:03:35;26.78;52.59
64650;HTU21D;51061;45.258;38.112;2022-09-16T08:06:06;27.20;50.86
64650;HTU21D;51061;45.258;38.112;2022-09-16T08:08:33;26.96;51.04
64650;HTU21D;51061;45.258;38.112;2022-09-16T08:11:00;26.79;51.57
64650;HTU21D;51061;45.258;38.112;2022-09-16T08:13:28;26.86;50.86
64650;HTU21D;51061;45.258;38.112;2022-09-16T08:15:58;26.95;51.08
64650;HTU21D;51061;45.258;38.112;2022-09-16T08:18:24;26.95;50.95
64650;HTU21D;51061;45.258;38.112;2022-09-16T08:20:50;26.95;50.85
64650;HTU21D;51061;45.258;38.112;2022-09-16T08:23:16;26.98;50.35
64650;HTU21D;51061;45.258;38.112;2022-09-16T08:25:42;26.83;50.32
64650;HTU21D;51061;45.258;38.112;2022-09-16T08:28:16;26.72;49.69
64650;HTU21D;51061;45.258;38.112;2022-09-16T08:30:42;26.68;50.66
64650;HTU21D;51061;45.258;38.112;2022-09-16T08:33:09;26.65;50.58
64650;HTU21D;51061;45.258;38.112;2022-09-16T08:35:35;26.77;50.14
64650;HTU21D;51061;45.258;38.112;2022-09-16T08:38:02;26.73;49.73
64650;HTU21D;51061;45.258;38.112;2022-09-16T08:40:32;26.73;49.59
64650;HTU21D;51061;45.258;38.112;2022-09-16T08:45:59;27.98;46.37
64650;HTU21D;51061;45.258;38.112;2022-09-16T08:48:37;27.73;46.99
64650;HTU21D;51061;45.258;38.112;2022-09-16T08:51:08;27.57;47.37
64650;HTU21D;51061;45.258;38.112;2022-09-16T08:53:42;27.49;47.86
64650;HTU21D;51061;45.258;38.112;2022-09-16T08:56:14;27.41;46.59
64650;HTU21D;51061;45.258;38.112;2022-09-16T08:58:49;27.63;45.38
64650;HTU21D;51061;45.258;38.112;2022-09-16T09:01:28;27.90;44.79
64650;HTU21D;51061;45.258;38.112;2022-09-16T09:03:57;27.83;45.45
64650;HTU21D;51061;45.258;38.112;2022-09-16T09:25:44;31.42;38.59
64650;HTU21D;51061;45.258;38.112;2022-09-16T09:28:27;30.91;38.89
64650;HTU21D;51061;45.258;38.112;2022-09-16T09:37:03;31.10;37.17
64650;HTU21D;51061;45.258;38.112;2022-09-16T09:39:54;31.26;35.92
64650;HTU21D;51061;45.258;38.112;2022-09-16T09:42:27;31.33;36.57
64650;HTU21D;51061;45.258;38.112;2022-09-16T09:45:17;31.10;36.55
64650;HTU21D;51061;45.258;38.112;2022-09-16T09:48:06;30.59;38.08
64650;HTU21D;51061;45.258;38.112;2022-09-16T09:50:43;30.33;39.03
64650;HTU21D;51061;45.258;38.112;2022-09-16T09:55:37;29.64;40.96
64650;HTU21D;51061;45.258;38.112;2022-09-16T09:58:52;29.30;42.03
64650;HTU21D;51061;45.258;38.112;2022-09-16T10:01:22;29.14;42.34
64650;HTU21D;51061;45.258;38.112;2022-09-16T10:03:50;29.19;42.87
64650;HTU21D;51061;45.258;38.112;2022-09-16T10:06:24;29.77;41.66
64650;HTU21D;51061;45.258;38.112;2022-09-16T10:08:54;30.52;39.91
64650;HTU21D;51061;45.258;38.112;2022-09-16T10:11:23;30.97;39.15
64650;HTU21D;51061;45.258;38.112;2022-09-16T10:13:52;31.24;38.49
64650;HTU21D;51061;45.258;38.112;2022-09-16T10:16:21;31.51;38.15
64650;HTU21D;51061;45.258;38.112;2022-09-16T10:19:05;31.93;36.63
64650;HTU21D;51061;45.258;38.112;2022-09-16T10:21:47;32.26;36.26
64650;HTU21D;51061;45.258;38.112;2022-09-16T10:27:01;31.81;35.15
64650;HTU21D;51061;45.258;38.112;2022-09-16T10:29:28;31.39;36.63
64650;HTU21D;51061;45.258;38.112;2022-09-16T10:31:54;31.78;36.50
64650;HTU21D;51061;45.258;38.112;2022-09-16T10:34:25;32.01;36.37
64650;HTU21D;51061;45.258;38.112;2022-09-16T10:37:18;32.44;34.73
64650;HTU21D;51061;45.258;38.112;2022-09-16T10:39:51;32.37;34.73
64650;HTU21D;51061;45.258;38.112;2022-09-16T10:42:21;32.33;34.57
64650;HTU21D;51061;45.258;38.112;2022-09-16T10:44:49;32.38;34.75
64650;HTU21D;51061;45.258;38.112;2022-09-16T10:47:19;32.62;34.50
64650;HTU21D;51061;45.258;38.112;2022-09-16T10:49:53;32.62;34.70
64650;HTU21D;51061;45.258;38.112;2022-09-16T10:52:22;32.66;34.34
64650;HTU21D;51061;45.258;38.112;2022-09-16T10:54:49;32.77;33.45
64650;HTU21D;51061;45.258;38.112;2022-09-16T10:57:33;32.97;33.04
64650;HTU21D;51061;45.258;38.112;2022-09-16T11:07:54;33.21;32.77
64650;HTU21D;51061;45.258;38.112;2022-09-16T11:13:37;31.97;34.81
64650;HTU21D;51061;45.258;38.112;2022-09-16T11:19:03;32.11;33.25
64650;HTU21D;51061;45.258;38.112;2022-09-16T11:32:43;31.46;35.64
64650;HTU21D;51061;45.258;38.112;2022-09-16T11:35:29;31.80;35.68
64650;HTU21D;51061;45.258;38.112;2022-09-16T11:37:59;31.37;36.27
64650;HTU21D;51061;45.258;38.112;2022-09-16T11:40:46;30.57;38.63
64650;HTU21D;51061;45.258;38.112;2022-09-16T11:43:48;29.98;39.92
64650;HTU21D;51061;45.258;38.112;2022-09-16T11:57:15;29.00;42.58
64650;HTU21D;51061;45.258;38.112;2022-09-16T11:59:53;28.90;42.75
64650;HTU21D;51061;45.258;38.112;2022-09-16T12:05:36;28.78;43.05
64650;HTU21D;51061;45.258;38.112;2022-09-16T12:08:24;28.68;43.15
64650;HTU21D;51061;45.258;38.112;2022-09-16T12:11:16;28.59;43.45
64650;HTU21D;51061;45.258;38.112;2022-09-16T12:14:12;28.53;43.60
64650;HTU21D;51061;45.258;38.112;2022-09-16T12:16:53;28.43;44.32
64650;HTU21D;51061;45.258;38.112;2022-09-16T12:19:24;28.38;44.55
64650;HTU21D;51061;45.258;38.112;2022-09-16T12:21:58;28.34;44.57
64650;HTU21D;51061;45.258;38.112;2022-09-16T12:24:39;28.28;44.62
64650;HTU21D;51061;45.258;38.112;2022-09-16T12:28:09;28.24;44.10
64650;HTU21D;51061;45.258;38.112;2022-09-16T12:30:28;28.27;43.89
64650;HTU21D;51061;45.258;38.112;2022-09-16T12:33:18;28.17;44.22
64650;HTU21D;51061;45.258;38.112;2022-09-16T12:35:57;28.15;44.90
64650;HTU21D;51061;45.258;38.112;2022-09-16T12:38:25;28.11;45.06
64650;HTU21D;51061;45.258;38.112;2022-09-16T13:00:23;27.65;46.55
64650;HTU21D;51061;45.258;38.112;2022-09-16T13:03:04;27.52;46.98
64650;HTU21D;51061;45.258;38.112;2022-09-16T13:05:36;27.44;47.46
64650;HTU21D;51061;45.258;38.112;2022-09-16T13:08:05;27.41;47.15
64650;HTU21D;51061;45.258;38.112;2022-09-16T13:10:38;27.34;47.57
64650;HTU21D;51061;45.258;38.112;2022-09-16T13:13:06;27.27;47.67
64650;HTU21D;51061;45.258;38.112;2022-09-16T13:15:34;27.23;47.76
64650;HTU21D;51061;45.258;38.112;2022-09-16T13:21:01;27.13;46.77
64650;HTU21D;51061;45.258;38.112;2022-09-16T13:23:34;27.10;46.93
64650;HTU21D;51061;45.258;38.112;2022-09-16T13:26:07;27.07;47.21
64650;HTU21D;51061;45.258;38.112;2022-09-16T13:33:43;27.00;48.04
64650;HTU21D;51061;45.258;38.112;2022-09-16T13:38:41;26.94;48.59
64650;HTU21D;51061;45.258;38.112;2022-09-16T13:41:12;26.92;48.89
64650;HTU21D;51061;45.258;38.112;2022-09-16T13:46:13;26.91;49.28
64650;HTU21D;51061;45.258;38.112;2022-09-16T13:51:29;26.91;49.72
64650;HTU21D;51061;45.258;38.112;2022-09-16T13:53:55;26.86;50.04
64650;HTU21D;51061;45.258;38.112;2022-09-16T14:07:27;26.45;51.52
64650;HTU21D;51061;45.258;38.112;2022-09-16T14:10:08;26.43;51.64
64650;HTU21D;51061;45.258;38.112;2022-09-16T14:15:52;26.35;51.91
64650;HTU21D;51061;45.258;38.112;2022-09-16T14:18:19;26.23;52.25
64650;HTU21D;51061;45.258;38.112;2022-09-16T14:21:00;26.26;52.26
64650;HTU21D;51061;45.258;38.112;2022-09-16T14:23:29;26.24;52.42
64650;HTU21D;51061;45.258;38.112;2022-09-16T14:26:07;26.21;52.53
64650;HTU21D;51061;45.258;38.112;2022-09-16T14:28:34;26.19;52.52
64650;HTU21D;51061;45.258;38.112;2022-09-16T14:31:01;26.17;52.40
64650;HTU21D;51061;45.258;38.112;2022-09-16T14:33:35;26.16;52.43
64650;HTU21D;51061;45.258;38.112;2022-09-16T14:36:33;26.07;52.59
64650;HTU21D;51061;45.258;38.112;2022-09-16T14:49:35;25.87;51.68
64650;HTU21D;51061;45.258;38.112;2022-09-16T14:52:02;25.82;51.66
64650;HTU21D;51061;45.258;38.112;2022-09-16T14:54:29;25.75;51.77
64650;HTU21D;51061;45.258;38.112;2022-09-16T14:57:04;25.69;51.91
64650;HTU21D;51061;45.258;38.112;2022-09-16T14:59:35;25.64;52.11
64650;HTU21D;51061;45.258;38.112;2022-09-16T15:02:24;25.57;52.40
64650;HTU21D;51061;45.258;38.112;2022-09-16T15:05:19;25.47;52.69
64650;HTU21D;51061;45.258;38.112;2022-09-16T15:07:47;25.46;52.82
64650;HTU21D;51061;45.258;38.112;2022-09-16T15:10:29;25.40;52.97
64650;HTU21D;51061;45.258;38.112;2022-09-16T15:13:01;25.40;52.69
64650;HTU21D;51061;45.258;38.112;2022-09-16T15:15:31;25.36;52.56
64650;HTU21D;51061;45.258;38.112;2022-09-16T15:20:31;25.28;52.41
64650;HTU21D;51061;45.258;38.112;2022-09-16T15:22:59;25.25;52.26
64650;HTU21D;51061;45.258;38.112;2022-09-16T15:25:33;25.27;52.04
64650;HTU21D;51061;45.258;38.112;2022-09-16T15:28:03;25.13;52.30
64650;HTU21D;51061;45.258;38.112;2022-09-16T15:30:29;25.17;51.95
64650;HTU21D;51061;45.258;38.112;2022-09-16T15:32:55;25.19;51.69
64650;HTU21D;51061;45.258;38.112;2022-09-16T15:35:25;25.18;51.57
64650;HTU21D;51061;45.258;38.112;2022-09-16T15:37:53;25.19;51.54
64650;HTU21D;51061;45.258;38.112;2022-09-16T15:45:26;25.13;51.50
64650;HTU21D;51061;45.258;38.112;2022-09-16T15:48:00;25.09;51.66
64650;HTU21D;51061;45.258;38.112;2022-09-16T15:50:29;25.05;51.82
64650;HTU21D;51061;45.258;38.112;2022-09-16T15:55:57;24.92;52.07
64650;HTU21D;51061;45.258;38.112;2022-09-16T16:03:56;24.73;52.46
64650;HTU21D;51061;45.258;38.112;2022-09-16T16:06:48;24.68;52.54
64650;HTU21D;51061;45.258;38.112;2022-09-16T16:14:21;24.56;52.69
64650;HTU21D;51061;45.258;38.112;2022-09-16T16:16:49;24.53;52.78
64650;HTU21D;51061;45.258;38.112;2022-09-16T16:19:15;24.49;52.84
64650;HTU21D;51061;45.258;38.112;2022-09-16T16:21:41;24.47;52.81
64650;HTU21D;51061;45.258;38.112;2022-09-16T16:24:14;24.45;52.80
64650;HTU21D;51061;45.258;38.112;2022-09-16T16:26:40;24.43;52.80
64650;HTU21D;51061;45.258;38.112;2022-09-16T16:29:06;24.41;52.82
64650;HTU21D;51061;45.258;38.112;2022-09-16T16:31:32;24.38;52.86
64650;HTU21D;51061;45.258;38.112;2022-09-16T16:34:01;24.34;52.98
64650;HTU21D;51061;45.258;38.112;2022-09-16T16:36:27;24.30;53.07
64650;HTU21D;51061;45.258;38.112;2022-09-16T16:38:54;24.27;53.18
64650;HTU21D;51061;45.258;38.112;2022-09-16T16:41:21;24.24;53.23
64650;HTU21D;51061;45.258;38.112;2022-09-16T16:43:48;24.20;53.26
64650;HTU21D;51061;45.258;38.112;2022-09-16T16:46:15;24.19;53.37
64650;HTU21D;51061;45.258;38.112;2022-09-16T16:48:43;24.17;53.31
64650;HTU21D;51061;45.258;38.112;2022-09-16T16:51:10;24.14;53.39
64650;HTU21D;51061;45.258;38.112;2022-09-16T16:53:37;24.12;53.47
64650;HTU21D;51061;45.258;38.112;2022-09-16T16:56:07;24.09;53.48
64650;HTU21D;51061;45.258;38.112;2022-09-16T16:58:34;24.03;53.57
64650;HTU21D;51061;45.258;38.112;2022-09-16T17:01:12;24.02;53.54
64650;HTU21D;51061;45.258;38.112;2022-09-16T17:03:39;24.01;53.66
64650;HTU21D;51061;45.258;38.112;2022-09-16T17:06:06;23.98;53.68
64650;HTU21D;51061;45.258;38.112;2022-09-16T17:08:33;23.95;53.72
64650;HTU21D;51061;45.258;38.112;2022-09-16T17:11:12;23.92;53.84
64650;HTU21D;51061;45.258;38.112;2022-09-16T17:13:41;23.88;53.96
64650;HTU21D;51061;45.258;38.112;2022-09-16T17:16:10;23.84;54.04
64650;HTU21D;51061;45.258;38.112;2022-09-16T17:18:38;23.80;54.11
64650;HTU21D;51061;45.258;38.112;2022-09-16T17:21:20;23.75;54.17
64650;HTU21D;51061;45.258;38.112;2022-09-16T17:23:47;23.71;54.25
64650;HTU21D;51061;45.258;38.112;2022-09-16T17:26:14;23.69;54.35
64650;HTU21D;51061;45.258;38.112;2022-09-16T17:28:43;23.67;54.37
64650;HTU21D;51061;45.258;38.112;2022-09-16T17:31:14;23.65;54.39
64650;HTU21D;51061;45.258;38.112;2022-09-16T17:33:42;23.61;54.56
64650;HTU21D;51061;45.258;38.112;2022-09-16T17:36:10;23.58;54.71
64650;HTU21D;51061;45.258;38.112;2022-09-16T17:38:37;23.57;54.78
64650;HTU21D;51061;45.258;38.112;2022-09-16T17:41:23;23.57;54.87
64650;HTU21D;51061;45.258;38.112;2022-09-16T17:43:52;23.64;54.78
64650;HTU21D;51061;45.258;38.112;2022-09-16T17:46:19;23.64;54.84
64650;HTU21D;51061;45.258;38.112;2022-09-16T17:48:48;23.68;54.73
64650;HTU21D;51061;45.258;38.112;2022-09-16T17:51:19;23.71;54.72
64650;HTU21D;51061;45.258;38.112;2022-09-16T17:53:45;23.73;54.79
64650;HTU21D;51061;45.258;38.112;2022-09-16T17:56:13;23.72;54.91
64650;HTU21D;51061;45.258;38.112;2022-09-16T17:58:42;23.72;55.11
64650;HTU21D;51061;45.258;38.112;2022-09-16T18:01:22;23.73;55.36
64650;HTU21D;51061;45.258;38.112;2022-09-16T18:03:52;23.74;55.45
64650;HTU21D;51061;45.258;38.112;2022-09-16T18:06:24;23.75;55.69
64650;HTU21D;51061;45.258;38.112;2022-09-16T18:08:51;23.76;55.84
64650;HTU21D;51061;45.258;38.112;2022-09-16T18:11:18;23.77;56.10
64650;HTU21D;51061;45.258;38.112;2022-09-16T18:13:46;23.79;56.31
64650;HTU21D;51061;45.258;38.112;2022-09-16T18:16:19;23.77;56.64
64650;HTU21D;51061;45.258;38.112;2022-09-16T18:18:49;23.81;56.99
64650;HTU21D;51061;45.258;38.112;2022-09-16T18:21:15;23.79;57.25
64650;HTU21D;51061;45.258;38.112;2022-09-16T18:23:45;23.76;57.66
64650;HTU21D;51061;45.258;38.112;2022-09-16T18:26:14;23.80;58.01
64650;HTU21D;51061;45.258;38.112;2022-09-16T18:28:42;23.77;58.35
64650;HTU21D;51061;45.258;38.112;2022-09-16T18:31:10;23.77;58.53
64650;HTU21D;51061;45.258;38.112;2022-09-16T18:33:37;23.75;58.76
64650;HTU21D;51061;45.258;38.112;2022-09-16T18:36:09;23.74;59.01
64650;HTU21D;51061;45.258;38.112;2022-09-16T18:38:39;23.73;59.42
64650;HTU21D;51061;45.258;38.112;2022-09-16T18:41:14;23.73;59.67
64650;HTU21D;51061;45.258;38.112;2022-09-16T18:43:44;23.73;59.86
64650;HTU21D;51061;45.258;38.112;2022-09-16T18:46:15;23.74;60.17